Time;durP1;ratioP1;P1;durP2;ratioP2;P2;SDS_P1;SDS_P2;PMS_P1;PMS_P2;Temp;Humidity;BMP_temperature;BMP_pressure;BME280_temperature;BME280_humidity;BME280_pressure;Samples;Min_cycle;Max_cycle;Signal;HPM_P1;HPM_P2
2022/04/21 00:01:43;;;;;;;2.40;2.20;;;;;;;;;;5113580;28;20559;-50
2022/04/21 00:04:10;;;;;;;3.40;2.00;;;;;;;;;;5113466;28;20194;-50
2022/04/21 00:06:36;;;;;;;2.30;2.10;;;;;;;;;;5113501;28;20198;-51
2022/04/21 00:09:02;;;;;;;2.10;2.00;;;;;;;;;;5113239;28;20190;-50
2022/04/21 00:11:28;;;;;;;2.80;2.27;;;;;;;;;;5113284;28;20205;-50
2022/04/21 00:13:54;;;;;;;2.03;1.93;;;;;;;;;;5113011;28;20246;-51
2022/04/21 00:16:20;;;;;;;2.60;2.30;;;;;;;;;;5113326;28;20357;-51
2022/04/21 00:18:48;;;;;;;4.20;2.27;;;;;;;;;;5113219;28;20190;-49
2022/04/21 00:21:15;;;;;;;2.47;2.20;;;;;;;;;;5113317;28;20198;-50
2022/04/21 00:23:41;;;;;;;3.67;2.40;;;;;;;;;;5112482;28;20213;-50
2022/04/21 00:26:07;;;;;;;6.33;2.37;;;;;;;;;;5112728;28;20190;-50
2022/04/21 00:28:33;;;;;;;2.80;2.57;;;;;;;;;;5112960;28;20277;-50
2022/04/21 00:30:59;;;;;;;4.03;2.40;;;;;;;;;;5112886;28;20213;-50
2022/04/21 00:33:25;;;;;;;2.83;2.60;;;;;;;;;;5112771;28;20206;-50
2022/04/21 00:35:52;;;;;;;2.87;2.33;;;;;;;;;;5112631;28;20218;-52
2022/04/21 00:38:19;;;;;;;3.60;2.50;;;;;;;;;;5112766;28;20278;-50
2022/04/21 00:40:45;;;;;;;3.03;2.30;;;;;;;;;;5112886;28;20198;-50
2022/04/21 00:43:11;;;;;;;3.50;2.60;;;;;;;;;;5112636;28;20205;-50
2022/04/21 00:45:37;;;;;;;2.60;2.40;;;;;;;;;;5112700;28;20531;-51
2022/04/21 00:48:04;;;;;;;2.47;2.27;;;;;;;;;;5112403;28;20194;-50
2022/04/21 00:50:32;;;;;;;3.90;2.80;;;;;;;;;;5112725;28;20194;-50
2022/04/21 00:52:58;;;;;;;3.70;2.40;;;;;;;;;;5112736;28;20198;-51
2022/04/21 00:55:26;;;;;;;3.07;2.77;;;;;;;;;;5112389;28;20222;-51
2022/04/21 00:57:53;;;;;;;3.00;2.70;;;;;;;;;;5112393;28;20698;-50
2022/04/21 01:00:19;;;;;;;3.93;2.83;;;;;;;;;;5112461;28;20631;-50
2022/04/21 01:02:55;;;;;;;3.10;2.60;;;;;;;;;;5112473;28;20288;-50
2022/04/21 01:05:31;;;;;;;3.20;2.90;;;;;;;;;;5112435;28;20614;-49
2022/04/21 01:07:59;;;;;;;4.80;2.80;;;;;;;;;;5112370;28;20201;-50
2022/04/21 01:10:27;;;;;;;2.60;2.40;;;;;;;;;;5112506;28;20543;-51
2022/04/21 01:12:53;;;;;;;3.80;2.80;;;;;;;;;;5112315;28;20202;-51
2022/04/21 01:15:19;;;;;;;3.00;2.70;;;;;;;;;;5112069;28;20230;-51
2022/04/21 01:17:45;;;;;;;3.17;2.77;;;;;;;;;;5112212;28;20276;-50
2022/04/21 01:20:15;;;;;;;3.27;2.67;;;;;;;;;;5112114;28;20576;-51
2022/04/21 01:22:41;;;;;;;4.53;2.70;;;;;;;;;;5112240;28;20259;-51
2022/04/21 01:25:07;;;;;;;3.83;2.70;;;;;;;;;;5111964;28;20218;-51
2022/04/21 01:27:34;;;;;;;5.77;3.17;;;;;;;;;;5112177;28;20205;-50
2022/04/21 01:30:02;;;;;;;3.03;2.73;;;;;;;;;;5112146;28;20214;-50
2022/04/21 01:32:28;;;;;;;4.53;2.73;;;;;;;;;;5112193;28;20616;-51
2022/04/21 01:34:54;;;;;;;3.27;2.97;;;;;;;;;;5111982;28;20218;-50
2022/04/21 01:42:51;;;;;;;4.33;3.93;;;;;;;;;;5116199;28;20732;-51
2022/04/21 01:45:20;;;;;;;3.60;3.30;;;;;;;;;;5116190;28;20186;-50
2022/04/21 01:47:46;;;;;;;3.47;3.17;;;;;;;;;;5115966;28;20676;-50
2022/04/21 01:50:12;;;;;;;3.57;3.10;;;;;;;;;;5116087;28;20198;-50
2022/04/21 01:52:39;;;;;;;2.97;2.70;;;;;;;;;;5115950;28;20277;-51
2022/04/21 01:55:07;;;;;;;3.67;3.33;;;;;;;;;;5115750;28;20246;-49
2022/04/21 01:57:33;;;;;;;3.83;3.53;;;;;;;;;;5115933;28;20489;-52
2022/04/21 01:59:59;;;;;;;3.93;3.40;;;;;;;;;;5115906;28;20428;-51
2022/04/21 02:02:25;;;;;;;4.07;3.60;;;;;;;;;;5115691;28;20247;-49
2022/04/21 02:04:51;;;;;;;5.20;3.53;;;;;;;;;;5115609;28;20266;-51
2022/04/21 02:07:17;;;;;;;4.20;3.50;;;;;;;;;;5115780;28;20652;-50
2022/04/21 02:09:44;;;;;;;4.20;3.80;;;;;;;;;;5115752;28;20194;-51
2022/04/21 02:12:11;;;;;;;5.10;4.47;;;;;;;;;;5115514;28;20194;-51
2022/04/21 02:14:37;;;;;;;5.07;3.97;;;;;;;;;;5115403;28;20412;-49
2022/04/21 02:17:05;;;;;;;4.50;4.10;;;;;;;;;;5115425;28;20209;-50
2022/04/21 02:19:32;;;;;;;4.47;4.03;;;;;;;;;;5115678;28;20202;-50
2022/04/21 02:21:58;;;;;;;5.87;4.37;;;;;;;;;;5115414;28;20225;-51
2022/04/21 02:24:24;;;;;;;4.20;3.67;;;;;;;;;;5115034;28;20694;-50
2022/04/21 02:26:52;;;;;;;6.03;3.87;;;;;;;;;;5115231;28;20281;-49
2022/04/21 02:29:18;;;;;;;3.83;3.53;;;;;;;;;;5115246;28;20227;-49
2022/04/21 02:31:44;;;;;;;4.13;3.73;;;;;;;;;;5115160;28;20194;-49
2022/04/21 02:34:09;;;;;;;5.40;3.40;;;;;;;;;;5114871;28;20651;-49
2022/04/21 02:36:36;;;;;;;5.47;3.97;;;;;;;;;;5115107;28;20312;-49
2022/04/21 02:39:01;;;;;;;4.20;3.80;;;;;;;;;;5115001;28;20194;-48
2022/04/21 02:41:27;;;;;;;5.37;4.20;;;;;;;;;;5115024;28;20574;-49
2022/04/21 02:43:55;;;;;;;4.97;3.97;;;;;;;;;;5114736;28;20252;-50
2022/04/21 02:46:22;;;;;;;5.40;4.20;;;;;;;;;;5114434;28;20202;-49
2022/04/21 02:48:48;;;;;;;6.83;4.67;;;;;;;;;;5114753;28;20202;-49
2022/04/21 02:51:14;;;;;;;5.60;4.10;;;;;;;;;;5114798;28;20447;-50
2022/04/21 02:59:11;;;;;;;5.63;4.70;;;;;;;;;;5114648;28;20185;-49
2022/04/21 03:01:37;;;;;;;4.47;4.07;;;;;;;;;;5114577;28;20448;-49
2022/04/21 03:04:03;;;;;;;4.83;4.33;;;;;;;;;;5114431;28;20446;-49
2022/04/21 03:06:29;;;;;;;5.03;3.93;;;;;;;;;;5114627;28;20664;-50
2022/04/21 03:08:55;;;;;;;3.70;3.37;;;;;;;;;;5114454;28;20267;-48
2022/04/21 03:11:21;;;;;;;4.37;3.97;;;;;;;;;;5114519;28;20234;-48
2022/04/21 03:13:47;;;;;;;6.73;3.97;;;;;;;;;;5114286;28;20234;-48
2022/04/21 03:16:14;;;;;;;4.20;3.77;;;;;;;;;;5114244;28;20585;-49
2022/04/21 03:18:40;;;;;;;4.50;3.37;;;;;;;;;;5114326;28;20295;-50
2022/04/21 03:26:35;;;;;;;4.70;3.60;;;;;;;;;;5114169;28;20566;-50
2022/04/21 03:29:01;;;;;;;5.90;4.00;;;;;;;;;;5114084;28;21021;-50
2022/04/21 03:31:28;;;;;;;4.13;3.43;;;;;;;;;;5114037;28;20213;-50
2022/04/21 03:33:54;;;;;;;4.20;3.60;;;;;;;;;;5113735;28;20202;-49
2022/04/21 03:36:21;;;;;;;4.83;3.47;;;;;;;;;;5113729;28;20849;-50
2022/04/21 03:38:47;;;;;;;5.67;3.70;;;;;;;;;;5114235;28;20212;-50
2022/04/21 03:41:13;;;;;;;4.40;3.40;;;;;;;;;;5114050;28;20454;-49
2022/04/21 03:43:40;;;;;;;6.87;3.60;;;;;;;;;;5113725;28;20428;-49
2022/04/21 03:46:06;;;;;;;4.17;3.77;;;;;;;;;;5113595;28;20194;-48
2022/04/21 03:48:33;;;;;;;4.50;4.00;;;;;;;;;;5113592;28;20432;-49
2022/04/21 03:50:59;;;;;;;4.13;3.77;;;;;;;;;;5113483;28;20455;-48
2022/04/21 03:53:25;;;;;;;3.87;3.57;;;;;;;;;;5113559;28;20432;-49
2022/04/21 03:55:51;;;;;;;4.67;4.20;;;;;;;;;;5113244;28;20823;-49
2022/04/21 03:58:17;;;;;;;4.10;3.80;;;;;;;;;;5112711;28;20263;-48
2022/04/21 04:00:43;;;;;;;3.90;3.57;;;;;;;;;;5113636;28;20194;-49
2022/04/21 04:03:09;;;;;;;6.57;4.23;;;;;;;;;;5113287;28;20525;-50
2022/04/21 04:05:36;;;;;;;4.23;3.83;;;;;;;;;;5113441;28;20247;-49
2022/04/21 04:10:53;;;;;;;4.90;4.10;;;;;;;;;;5113301;28;20591;-49
2022/04/21 04:13:19;;;;;;;6.03;4.20;;;;;;;;;;5113105;28;20460;-49
2022/04/21 04:15:49;;;;;;;4.43;4.03;;;;;;;;;;5113087;28;20491;-49
2022/04/21 04:18:15;;;;;;;4.90;4.33;;;;;;;;;;5113245;28;20421;-49
2022/04/21 04:20:42;;;;;;;4.00;3.70;;;;;;;;;;5113213;28;20447;-49
2022/04/21 04:23:08;;;;;;;5.30;4.13;;;;;;;;;;5112939;28;20443;-49
2022/04/21 04:25:35;;;;;;;4.70;4.20;;;;;;;;;;5113173;28;20455;-49
2022/04/21 04:28:03;;;;;;;4.77;4.37;;;;;;;;;;5112998;28;20194;-49
2022/04/21 04:30:29;;;;;;;5.93;4.27;;;;;;;;;;5113114;28;20444;-49
2022/04/21 04:32:56;;;;;;;4.57;4.17;;;;;;;;;;5112676;28;20459;-49
2022/04/21 04:35:24;;;;;;;4.53;3.93;;;;;;;;;;5112633;28;21051;-49
2022/04/21 04:37:54;;;;;;;4.83;4.20;;;;;;;;;;5112689;28;20779;-49
2022/04/21 04:40:21;;;;;;;4.37;3.80;;;;;;;;;;5112879;28;20443;-49
2022/04/21 04:42:47;;;;;;;4.40;4.00;;;;;;;;;;5112615;28;20903;-49
2022/04/21 04:47:58;;;;;;;4.30;3.90;;;;;;;;;;5112531;28;20914;-49
2022/04/21 04:50:24;;;;;;;5.87;4.67;;;;;;;;;;5112442;28;20660;-49
2022/04/21 04:52:56;;;;;;;6.60;4.67;;;;;;;;;;5112355;28;20524;-49
2022/04/21 04:55:22;;;;;;;4.43;4.03;;;;;;;;;;5112583;28;20529;-49
2022/04/21 04:57:49;;;;;;;5.30;4.10;;;;;;;;;;5112494;28;20435;-49
2022/04/21 05:00:16;;;;;;;4.63;3.90;;;;;;;;;;5112675;28;20470;-49
2022/04/21 05:02:42;;;;;;;4.90;4.40;;;;;;;;;;5112487;28;20535;-49
2022/04/21 05:05:08;;;;;;;7.20;4.40;;;;;;;;;;5112267;28;20431;-50
2022/04/21 05:07:35;;;;;;;5.43;4.90;;;;;;;;;;5112489;28;20520;-49
2022/04/21 05:10:03;;;;;;;4.77;4.10;;;;;;;;;;5112363;28;20427;-49
2022/04/21 05:12:29;;;;;;;6.40;4.53;;;;;;;;;;5112320;28;20991;-49
2022/04/21 05:14:55;;;;;;;4.97;4.47;;;;;;;;;;5111960;28;20495;-48
2022/04/21 05:17:21;;;;;;;6.17;5.03;;;;;;;;;;5112122;28;20450;-49
2022/04/21 05:19:47;;;;;;;5.63;4.73;;;;;;;;;;5112036;28;20189;-48
2022/04/21 05:22:14;;;;;;;7.33;5.63;;;;;;;;;;5111602;28;20438;-50
2022/04/21 05:24:41;;;;;;;5.13;4.67;;;;;;;;;;5112201;28;20521;-50
2022/04/21 05:27:09;;;;;;;5.93;4.87;;;;;;;;;;5111985;28;20440;-49
2022/04/21 05:32:24;;;;;;;5.67;4.53;;;;;;;;;;5111968;28;20423;-49
2022/04/21 05:34:50;;;;;;;7.63;4.80;;;;;;;;;;5111926;28;20981;-48
2022/04/21 05:37:17;;;;;;;7.43;5.03;;;;;;;;;;5112020;28;20447;-48
2022/04/21 05:39:43;;;;;;;6.73;5.53;;;;;;;;;;5112235;28;20443;-48
2022/04/21 05:42:13;;;;;;;5.93;5.20;;;;;;;;;;5111970;28;20198;-49
2022/04/21 05:44:39;;;;;;;5.70;4.50;;;;;;;;;;5111956;28;20652;-49
2022/04/21 05:47:05;;;;;;;6.10;4.70;;;;;;;;;;5111805;28;20826;-49
2022/04/21 05:49:32;;;;;;;6.83;5.17;;;;;;;;;;5112360;28;20586;-49
2022/04/21 05:52:01;;;;;;;7.00;4.87;;;;;;;;;;5111980;28;20594;-50
2022/04/21 05:54:27;;;;;;;6.30;5.13;;;;;;;;;;5111949;28;20201;-50
2022/04/21 05:56:53;;;;;;;6.57;5.07;;;;;;;;;;5111701;28;20505;-47
2022/04/21 05:59:20;;;;;;;7.93;5.00;;;;;;;;;;5111950;28;20568;-47
2022/04/21 06:01:46;;;;;;;8.80;4.80;;;;;;;;;;5111686;28;20596;-50
2022/04/21 06:04:12;;;;;;;9.00;5.60;;;;;;;;;;5111752;28;20473;-50
2022/04/21 06:06:39;;;;;;;9.17;5.20;;;;;;;;;;5111807;28;20285;-50
2022/04/21 06:09:05;;;;;;;9.33;5.23;;;;;;;;;;5111504;28;20199;-48
2022/04/21 06:11:33;;;;;;;7.73;5.37;;;;;;;;;;5111792;28;20215;-48
2022/04/21 06:13:59;;;;;;;7.83;5.40;;;;;;;;;;5111507;28;20241;-48
2022/04/21 06:16:26;;;;;;;4.97;4.47;;;;;;;;;;5111304;28;20218;-48
2022/04/21 06:18:52;;;;;;;7.27;5.00;;;;;;;;;;5111212;28;20206;-48
2022/04/21 06:21:18;;;;;;;6.20;5.07;;;;;;;;;;5111530;28;20201;-48
2022/04/21 06:23:44;;;;;;;6.17;5.43;;;;;;;;;;5115191;28;20298;-48
2022/04/21 06:26:10;;;;;;;7.77;5.60;;;;;;;;;;5115089;28;20280;-48
2022/04/21 06:28:36;;;;;;;7.40;5.20;;;;;;;;;;5115362;28;20194;-48
2022/04/21 06:31:03;;;;;;;7.27;5.37;;;;;;;;;;5115157;28;20194;-49
2022/04/21 06:33:31;;;;;;;5.20;4.63;;;;;;;;;;5115282;28;20194;-49
2022/04/21 06:35:58;;;;;;;5.10;4.60;;;;;;;;;;5115020;28;20221;-49
2022/04/21 06:38:24;;;;;;;6.33;5.10;;;;;;;;;;5115014;27;20432;-49
2022/04/21 06:40:50;;;;;;;5.97;4.97;;;;;;;;;;5115036;28;20243;-49
2022/04/21 06:48:48;;;;;;;9.93;5.40;;;;;;;;;;5115100;28;20266;-48
2022/04/21 06:51:15;;;;;;;6.47;5.27;;;;;;;;;;5114953;28;20252;-49
2022/04/21 06:53:42;;;;;;;6.20;4.93;;;;;;;;;;5114895;28;20273;-49
2022/04/21 06:56:08;;;;;;;7.10;5.17;;;;;;;;;;5114666;28;20775;-49
2022/04/21 06:58:34;;;;;;;6.63;4.87;;;;;;;;;;5114658;28;20278;-49
2022/04/21 07:01:01;;;;;;;6.47;5.20;;;;;;;;;;5114751;28;20251;-49
2022/04/21 07:03:27;;;;;;;9.87;6.00;;;;;;;;;;5114536;28;20197;-50
2022/04/21 07:05:55;;;;;;;6.17;5.03;;;;;;;;;;5114485;28;20190;-49
2022/04/21 07:08:21;;;;;;;5.13;4.63;;;;;;;;;;5114510;28;20209;-49
2022/04/21 07:10:47;;;;;;;6.07;5.27;;;;;;;;;;5114520;28;20288;-51
2022/04/21 07:13:13;;;;;;;7.33;4.60;;;;;;;;;;5114438;28;20194;-51
2022/04/21 07:15:40;;;;;;;6.00;4.97;;;;;;;;;;5114215;28;20283;-52
2022/04/21 07:18:06;;;;;;;5.90;5.10;;;;;;;;;;5114115;28;20204;-53
2022/04/21 07:20:36;;;;;;;6.90;5.40;;;;;;;;;;5114365;28;20206;-53
2022/04/21 07:23:04;;;;;;;7.53;5.43;;;;;;;;;;5114087;28;20667;-52
2022/04/21 07:25:30;;;;;;;5.03;4.47;;;;;;;;;;5114354;28;20314;-53
2022/04/21 07:27:58;;;;;;;5.80;4.77;;;;;;;;;;5113737;28;20581;-48
2022/04/21 07:30:29;;;;;;;7.10;4.50;;;;;;;;;;5114066;28;20656;-53
2022/04/21 07:32:55;;;;;;;7.47;5.00;;;;;;;;;;5113940;28;20201;-49
2022/04/21 07:35:22;;;;;;;8.47;4.60;;;;;;;;;;5113909;28;20226;-55
2022/04/21 07:37:48;;;;;;;5.30;4.10;;;;;;;;;;5113980;28;20194;-55
2022/04/21 07:40:16;;;;;;;6.47;4.73;;;;;;;;;;5113873;28;20214;-56
2022/04/21 07:42:44;;;;;;;5.00;4.50;;;;;;;;;;5113845;28;20202;-50
2022/04/21 07:45:10;;;;;;;6.17;5.10;;;;;;;;;;5113755;28;20734;-52
2022/04/21 07:47:36;;;;;;;5.77;4.80;;;;;;;;;;5113695;28;20707;-52
2022/04/21 07:50:02;;;;;;;6.83;4.57;;;;;;;;;;5113633;28;20203;-50
2022/04/21 07:55:16;;;;;;;9.17;5.13;;;;;;;;;;5108570;28;20630;-50
2022/04/21 07:57:42;;;;;;;6.13;4.90;;;;;;;;;;5113046;28;20255;-50
2022/04/21 08:00:09;;;;;;;5.00;4.47;;;;;;;;;;5112929;28;20211;-49
2022/04/21 08:02:35;;;;;;;7.00;4.67;;;;;;;;;;5113403;28;20194;-49
2022/04/21 08:05:02;;;;;;;8.47;4.67;;;;;;;;;;5113080;28;20671;-50
2022/04/21 08:07:27;;;;;;;5.50;4.90;;;;;;;;;;5113316;28;20663;-50
2022/04/21 08:09:53;;;;;;;7.33;4.80;;;;;;;;;;5113135;28;20290;-49
2022/04/21 08:12:21;;;;;;;6.33;4.63;;;;;;;;;;5112810;28;20194;-49
2022/04/21 08:14:47;;;;;;;10.13;4.90;;;;;;;;;;5112744;28;20708;-49
2022/04/21 08:17:13;;;;;;;7.63;4.60;;;;;;;;;;5112631;28;20197;-50
2022/04/21 08:19:42;;;;;;;6.07;5.07;;;;;;;;;;5113001;28;20194;-50
2022/04/21 08:22:08;;;;;;;5.93;4.47;;;;;;;;;;5112949;28;20247;-51
2022/04/21 08:32:50;;;;;;;5.07;4.57;;;;;;;;;;5112519;28;20193;-48
2022/04/21 08:35:16;;;;;;;6.83;4.60;;;;;;;;;;5112588;28;20226;-55
2022/04/21 08:37:42;;;;;;;7.00;4.37;;;;;;;;;;5112801;28;20201;-49
2022/04/21 08:40:10;;;;;;;6.03;4.40;;;;;;;;;;5112523;28;20194;-50
2022/04/21 08:42:38;;;;;;;6.40;4.23;;;;;;;;;;5112826;28;20201;-49
2022/04/21 08:45:05;;;;;;;6.87;4.50;;;;;;;;;;5112007;28;20250;-50
2022/04/21 08:47:31;;;;;;;4.90;4.37;;;;;;;;;;5112474;28;20201;-50
2022/04/21 08:50:03;;;;;;;5.27;4.70;;;;;;;;;;5112322;28;20194;-49
2022/04/21 08:52:29;;;;;;;6.50;4.60;;;;;;;;;;5112666;28;20205;-51
2022/04/21 08:54:55;;;;;;;5.30;4.23;;;;;;;;;;5112348;28;20296;-49
2022/04/21 08:57:22;;;;;;;5.77;4.23;;;;;;;;;;5112246;28;20202;-50
2022/04/21 08:59:50;;;;;;;5.93;3.80;;;;;;;;;;5112321;28;20191;-49
2022/04/21 09:02:16;;;;;;;4.97;4.20;;;;;;;;;;5111780;28;20201;-49
2022/04/21 09:04:42;;;;;;;6.00;4.10;;;;;;;;;;5112362;28;20201;-49
2022/04/21 09:07:15;;;;;;;4.60;3.77;;;;;;;;;;5111827;28;20247;-49
2022/04/21 09:09:54;;;;;;;5.57;3.77;;;;;;;;;;5112192;28;20236;-50
2022/04/21 09:12:20;;;;;;;5.97;3.57;;;;;;;;;;5111885;28;20668;-50
2022/04/21 09:14:47;;;;;;;5.67;3.57;;;;;;;;;;5111458;28;20592;-50
2022/04/21 09:17:16;;;;;;;11.63;3.67;;;;;;;;;;5111831;28;20194;-50
2022/04/21 09:19:54;;;;;;;5.07;3.70;;;;;;;;;;5112246;28;20232;-50
2022/04/21 09:22:20;;;;;;;5.10;3.40;;;;;;;;;;5112080;28;20201;-52
2022/04/21 09:24:46;;;;;;;4.63;3.47;;;;;;;;;;5111998;28;20290;-50
2022/04/21 09:27:12;;;;;;;5.93;3.10;;;;;;;;;;5111898;28;20233;-49
2022/04/21 09:29:38;;;;;;;3.70;2.70;;;;;;;;;;5112331;28;20198;-52
2022/04/21 09:32:05;;;;;;;4.30;2.83;;;;;;;;;;5111963;28;20661;-51
2022/04/21 09:34:33;;;;;;;4.30;3.00;;;;;;;;;;5112218;28;20194;-50
2022/04/21 09:37:00;;;;;;;4.17;3.13;;;;;;;;;;5111731;28;20226;-50
2022/04/21 09:39:27;;;;;;;4.97;2.93;;;;;;;;;;5112087;28;20201;-51
2022/04/21 09:41:53;;;;;;;4.13;3.00;;;;;;;;;;5111873;28;20214;-51
2022/04/21 09:47:05;;;;;;;3.90;2.87;;;;;;;;;;5111591;28;20202;-51
2022/04/21 09:49:36;;;;;;;5.37;3.00;;;;;;;;;;5109806;28;20213;-51
2022/04/21 09:52:02;;;;;;;4.23;2.50;;;;;;;;;;5111786;28;20203;-50
2022/04/21 09:54:29;;;;;;;4.07;3.00;;;;;;;;;;5112147;28;20197;-51
2022/04/21 09:56:56;;;;;;;4.13;2.40;;;;;;;;;;5113093;28;20231;-50
2022/04/21 09:59:22;;;;;;;4.93;3.00;;;;;;;;;;5113907;28;20193;-52
2022/04/21 10:01:50;;;;;;;5.67;3.00;;;;;;;;;;5115675;28;20186;-52
2022/04/21 10:04:19;;;;;;;7.37;3.20;;;;;;;;;;5115761;28;20205;-51
2022/04/21 10:06:47;;;;;;;4.27;2.90;;;;;;;;;;5115921;28;20352;-52
2022/04/21 10:09:13;;;;;;;5.13;3.07;;;;;;;;;;5115697;28;20210;-52
2022/04/21 10:11:42;;;;;;;4.23;2.80;;;;;;;;;;5115706;28;20671;-52
2022/04/21 10:14:17;;;;;;;6.53;3.30;;;;;;;;;;5115241;28;20286;-52
2022/04/21 10:16:43;;;;;;;7.53;3.17;;;;;;;;;;5115185;28;20722;-52
2022/04/21 10:19:10;;;;;;;4.23;2.90;;;;;;;;;;5115166;28;20301;-52
2022/04/21 10:21:38;;;;;;;5.30;2.80;;;;;;;;;;5115332;28;20483;-52
2022/04/21 10:24:06;;;;;;;5.87;2.90;;;;;;;;;;5115108;28;20271;-52
2022/04/21 10:26:36;;;;;;;3.77;3.17;;;;;;;;;;5115435;28;20697;-52
2022/04/21 10:29:10;;;;;;;7.60;2.63;;;;;;;;;;5115213;28;20194;-51
2022/04/21 10:31:45;;;;;;;3.30;2.53;;;;;;;;;;5115105;28;20754;-51
2022/04/21 10:34:11;;;;;;;4.40;2.87;;;;;;;;;;5115035;28;20194;-52
2022/04/21 10:36:41;;;;;;;3.80;2.83;;;;;;;;;;5115009;28;20757;-52
2022/04/21 10:39:25;;;;;;;3.17;2.80;;;;;;;;;;5115049;28;20326;-52
2022/04/21 10:42:21;;;;;;;4.80;2.67;;;;;;;;;;5115028;28;20672;-52
2022/04/21 10:44:48;;;;;;;3.77;2.80;;;;;;;;;;5052067;28;20210;-52
2022/04/21 10:47:44;;;;;;;8.57;2.63;;;;;;;;;;5100259;28;20205;-52
2022/04/21 10:50:14;;;;;;;4.87;2.80;;;;;;;;;;5114894;28;20214;-51
2022/04/21 10:58:36;;;;;;;3.70;2.30;;;;;;;;;;5114570;28;20575;-52
2022/04/21 11:01:08;;;;;;;5.13;2.90;;;;;;;;;;5114330;28;20603;-53
2022/04/21 11:03:36;;;;;;;4.97;2.70;;;;;;;;;;5114674;28;20190;-52
2022/04/21 11:06:05;;;;;;;3.87;2.97;;;;;;;;;;5114470;28;20217;-52
2022/04/21 11:08:32;;;;;;;5.83;2.70;;;;;;;;;;5114175;28;20199;-52
2022/04/21 11:10:59;;;;;;;4.97;2.40;;;;;;;;;;5114773;28;20597;-52
2022/04/21 11:13:40;;;;;;;3.30;2.33;;;;;;;;;;5114313;28;20657;-52
2022/04/21 11:16:06;;;;;;;3.70;2.30;;;;;;;;;;5114069;28;20225;-53
2022/04/21 11:18:33;;;;;;;2.70;2.20;;;;;;;;;;5114286;28;20221;-52
2022/04/21 11:21:13;;;;;;;4.27;2.20;;;;;;;;;;5114299;28;20194;-53
2022/04/21 11:23:54;;;;;;;3.07;2.20;;;;;;;;;;5113996;28;20198;-52
2022/04/21 11:26:26;;;;;;;2.80;2.20;;;;;;;;;;5114060;28;20193;-51
2022/04/21 11:28:52;;;;;;;4.57;2.40;;;;;;;;;;5113702;28;20629;-52
2022/04/21 11:31:20;;;;;;;3.93;2.20;;;;;;;;;;5113930;28;20220;-53
2022/04/21 11:33:46;;;;;;;5.07;2.50;;;;;;;;;;5114107;28;20194;-51
2022/04/21 11:36:13;;;;;;;3.57;2.53;;;;;;;;;;5113879;28;20321;-53
2022/04/21 11:38:40;;;;;;;3.23;2.40;;;;;;;;;;5113984;28;20194;-52
2022/04/21 11:41:10;;;;;;;3.50;2.60;;;;;;;;;;5113714;28;20194;-52
2022/04/21 11:43:45;;;;;;;3.73;2.60;;;;;;;;;;5113866;28;20199;-51
2022/04/21 11:46:12;;;;;;;4.90;2.60;;;;;;;;;;5113605;28;20189;-51
2022/04/21 11:48:42;;;;;;;2.83;2.40;;;;;;;;;;5113748;28;20208;-52
2022/04/21 11:51:08;;;;;;;4.73;2.33;;;;;;;;;;5113503;28;20195;-52
2022/04/21 11:53:36;;;;;;;5.37;2.93;;;;;;;;;;5113623;28;20205;-53
2022/04/21 11:56:03;;;;;;;3.53;2.70;;;;;;;;;;5113437;28;20313;-52
2022/04/21 11:58:29;;;;;;;4.17;2.90;;;;;;;;;;5113609;28;20661;-52
2022/04/21 12:06:37;;;;;;;2.90;2.60;;;;;;;;;;5113343;28;20196;-52
2022/04/21 12:09:03;;;;;;;4.77;3.27;;;;;;;;;;5113116;28;20333;-51
2022/04/21 12:11:29;;;;;;;5.67;3.00;;;;;;;;;;5113498;28;20254;-52
2022/04/21 12:13:55;;;;;;;3.50;2.60;;;;;;;;;;5113037;28;20236;-51
2022/04/21 12:16:39;;;;;;;7.20;2.57;;;;;;;;;;5112932;28;20704;-53
2022/04/21 12:19:11;;;;;;;4.33;2.83;;;;;;;;;;5112391;28;20232;-53
2022/04/21 12:21:37;;;;;;;4.50;2.77;;;;;;;;;;5112946;28;20196;-51
2022/04/21 12:24:09;;;;;;;3.27;2.70;;;;;;;;;;5113058;28;20300;-50
2022/04/21 12:26:35;;;;;;;7.97;3.40;;;;;;;;;;5113266;28;20195;-53
2022/04/21 12:29:01;;;;;;;4.03;2.83;;;;;;;;;;5112789;28;20196;-53
2022/04/21 12:31:27;;;;;;;4.03;2.27;;;;;;;;;;5112876;28;20207;-52
2022/04/21 12:33:58;;;;;;;4.13;3.07;;;;;;;;;;5112785;28;20194;-50
2022/04/21 12:36:26;;;;;;;4.00;2.77;;;;;;;;;;5112775;28;20234;-51
2022/04/21 12:38:55;;;;;;;7.80;2.80;;;;;;;;;;5112809;28;20195;-53
2022/04/21 12:41:21;;;;;;;3.37;2.40;;;;;;;;;;5112589;28;20293;-53
2022/04/21 12:43:48;;;;;;;5.30;2.50;;;;;;;;;;5112714;28;20238;-53
2022/04/21 12:46:14;;;;;;;3.00;2.20;;;;;;;;;;5112571;28;20609;-53
2022/04/21 12:48:46;;;;;;;3.40;2.67;;;;;;;;;;5112581;28;20670;-52
2022/04/21 12:51:19;;;;;;;3.67;2.30;;;;;;;;;;5112824;28;20276;-52
2022/04/21 12:53:45;;;;;;;3.00;2.40;;;;;;;;;;5112626;28;20215;-52
2022/04/21 12:56:12;;;;;;;2.93;2.23;;;;;;;;;;5112370;28;20263;-52
2022/04/21 12:58:38;;;;;;;2.50;2.13;;;;;;;;;;5112513;28;20197;-52
2022/04/21 13:01:05;;;;;;;2.87;2.10;;;;;;;;;;5112240;28;20635;-52
2022/04/21 13:03:32;;;;;;;3.10;2.07;;;;;;;;;;5112555;28;20213;-51
2022/04/21 13:05:58;;;;;;;5.27;2.53;;;;;;;;;;5112384;28;20532;-52
2022/04/21 13:08:26;;;;;;;2.37;2.03;;;;;;;;;;5112007;28;20603;-52
2022/04/21 13:10:53;;;;;;;2.37;2.17;;;;;;;;;;5112343;28;20212;-51
2022/04/21 13:13:19;;;;;;;6.07;2.50;;;;;;;;;;5112111;28;20203;-53
2022/04/21 13:15:45;;;;;;;5.40;2.10;;;;;;;;;;5112515;28;20220;-50
2022/04/21 13:18:12;;;;;;;2.70;1.80;;;;;;;;;;5112283;28;20200;-52
2022/04/21 13:23:26;;;;;;;3.07;2.03;;;;;;;;;;5112402;28;20304;-51
2022/04/21 13:25:53;;;;;;;8.43;2.47;;;;;;;;;;5112328;28;20217;-51
2022/04/21 13:28:19;;;;;;;7.80;2.17;;;;;;;;;;5112095;28;20224;-52
2022/04/21 13:30:45;;;;;;;3.83;2.10;;;;;;;;;;5113316;28;20208;-54
2022/04/21 13:33:23;;;;;;;2.53;1.70;;;;;;;;;;5116593;28;20198;-52
2022/04/21 13:35:50;;;;;;;3.37;2.00;;;;;;;;;;5116380;28;20221;-52
2022/04/21 13:38:16;;;;;;;5.20;1.93;;;;;;;;;;5116491;28;20649;-52
2022/04/21 13:40:42;;;;;;;2.67;2.17;;;;;;;;;;5114778;28;20206;-52
2022/04/21 13:43:10;;;;;;;6.40;2.40;;;;;;;;;;5114337;28;20197;-52
2022/04/21 13:45:36;;;;;;;3.67;2.10;;;;;;;;;;5115151;28;20194;-53
2022/04/21 13:48:04;;;;;;;5.57;2.27;;;;;;;;;;5115743;28;20772;-52
2022/04/21 13:50:30;;;;;;;2.93;2.20;;;;;;;;;;5116006;28;20679;-51
2022/04/21 13:52:56;;;;;;;2.70;1.80;;;;;;;;;;5116103;28;20202;-52
2022/04/21 13:55:22;;;;;;;5.47;1.77;;;;;;;;;;5115632;28;20218;-51
2022/04/21 13:57:48;;;;;;;4.03;1.77;;;;;;;;;;5115647;28;20198;-53
2022/04/21 14:00:15;;;;;;;6.60;2.10;;;;;;;;;;5115587;28;20194;-51
2022/04/21 14:02:41;;;;;;;3.17;1.63;;;;;;;;;;5115838;28;20214;-52
2022/04/21 14:05:07;;;;;;;5.47;1.73;;;;;;;;;;5115524;28;20201;-52
2022/04/21 14:07:33;;;;;;;2.37;1.90;;;;;;;;;;5115609;28;20206;-51
2022/04/21 14:09:59;;;;;;;3.37;1.60;;;;;;;;;;5115635;28;20540;-52
2022/04/21 14:12:29;;;;;;;2.57;1.87;;;;;;;;;;5115448;28;20241;-51
2022/04/21 14:14:55;;;;;;;4.87;1.67;;;;;;;;;;5115230;28;20596;-51
2022/04/21 14:17:22;;;;;;;4.70;1.67;;;;;;;;;;5115283;28;20216;-50
2022/04/21 14:19:48;;;;;;;3.93;1.90;;;;;;;;;;5115417;28;20213;-52
2022/04/21 14:22:14;;;;;;;4.73;2.07;;;;;;;;;;5115277;28;20198;-51
2022/04/21 14:24:40;;;;;;;3.20;2.10;;;;;;;;;;5115054;28;20217;-52
2022/04/21 14:27:06;;;;;;;4.80;1.87;;;;;;;;;;5115388;28;20192;-51
2022/04/21 14:29:32;;;;;;;7.27;2.10;;;;;;;;;;5115423;28;20201;-52
2022/04/21 14:31:58;;;;;;;3.70;1.87;;;;;;;;;;5115287;28;20541;-52
2022/04/21 14:34:29;;;;;;;3.83;1.90;;;;;;;;;;5115261;28;20202;-52
2022/04/21 14:36:57;;;;;;;4.77;1.90;;;;;;;;;;5115295;28;20307;-52
2022/04/21 14:44:04;;;;;;;7.43;2.30;;;;;;;;;;5114593;28;20679;-51
2022/04/21 14:45:03;;;;;;;3.27;1.87;;;;;;;;;;5115035;28;20208;-51
2022/04/21 14:47:29;;;;;;;2.17;1.90;;;;;;;;;;5115330;28;20194;-51
2022/04/21 14:49:57;;;;;;;3.33;1.93;;;;;;;;;;5114706;28;20205;-51
2022/04/21 14:52:23;;;;;;;5.33;2.10;;;;;;;;;;5114939;28;20685;-51
2022/04/21 14:54:50;;;;;;;10.87;2.20;;;;;;;;;;5115111;28;20201;-51
2022/04/21 14:57:16;;;;;;;4.00;2.03;;;;;;;;;;5114884;28;20317;-52
2022/04/21 14:59:42;;;;;;;7.83;2.40;;;;;;;;;;5114968;28;20201;-52
2022/04/21 15:02:08;;;;;;;5.10;2.30;;;;;;;;;;5114890;28;20202;-51
2022/04/21 15:04:34;;;;;;;6.73;2.37;;;;;;;;;;5114919;28;20203;-52
2022/04/21 15:07:02;;;;;;;4.43;2.47;;;;;;;;;;5114692;28;20277;-52
2022/04/21 15:09:28;;;;;;;4.13;2.63;;;;;;;;;;5114901;28;20285;-51
2022/04/21 15:11:54;;;;;;;4.00;2.37;;;;;;;;;;5114297;28;20616;-51
2022/04/21 15:14:20;;;;;;;4.20;2.80;;;;;;;;;;5114199;28;20263;-50
2022/04/21 15:16:46;;;;;;;3.83;2.77;;;;;;;;;;5114413;28;20321;-49
2022/04/21 15:19:12;;;;;;;3.93;2.50;;;;;;;;;;5112744;28;20648;-51
2022/04/21 15:21:39;;;;;;;6.30;2.60;;;;;;;;;;5108086;28;20201;-51
2022/04/21 15:24:07;;;;;;;5.20;2.40;;;;;;;;;;5114097;28;20240;-50
2022/04/21 15:26:33;;;;;;;3.13;2.70;;;;;;;;;;5114358;28;20195;-51
2022/04/21 15:28:59;;;;;;;4.73;2.77;;;;;;;;;;5112609;28;20239;-50
2022/04/21 15:31:25;;;;;;;6.30;2.47;;;;;;;;;;5114195;28;20202;-49
2022/04/21 15:33:52;;;;;;;3.03;2.63;;;;;;;;;;5113883;28;20205;-52
2022/04/21 15:36:19;;;;;;;3.37;2.70;;;;;;;;;;5113918;28;20267;-51
2022/04/21 15:38:45;;;;;;;5.90;2.83;;;;;;;;;;5114028;28;20290;-51
2022/04/21 15:41:13;;;;;;;3.67;2.60;;;;;;;;;;5113999;28;20202;-51
2022/04/21 15:43:39;;;;;;;2.60;2.40;;;;;;;;;;5113942;28;20198;-51
2022/04/21 15:46:05;;;;;;;5.23;2.53;;;;;;;;;;5113610;28;20229;-50